Time;durP1;ratioP1;P1;durP2;ratioP2;P2;SDS_P1;SDS_P2;PMS_P1;PMS_P2;Temp;Humidity;BMP_temperature;BMP_pressure;BME280_temperature;BME280_humidity;BME280_pressure;Samples;Min_cycle;Max_cycle;Signal;HPM_P1;HPM_P2
2023/03/30 00:01:48;;;;;;;21.25;10.13;;;;;;;-4.08;66.60;97788.50;6228656;28;20064;-64
2023/03/30 00:04:50;;;;;;;17.02;8.85;;;;;;;-4.11;66.54;97779.91;6232283;28;20045;-65
2023/03/30 00:07:56;;;;;;;25.65;10.25;;;;;;;-4.04;66.35;97783.41;6230846;28;20586;-64
2023/03/30 00:11:02;;;;;;;20.10;9.93;;;;;;;-4.06;66.61;97803.94;6230347;28;20045;-64
2023/03/30 00:14:08;;;;;;;24.60;10.60;;;;;;;-4.19;66.98;97808.13;6229341;28;20030;-64
2023/03/30 00:17:12;;;;;;;17.67;8.05;;;;;;;-4.22;67.02;97808.06;6231611;28;20507;-65
2023/03/30 00:20:18;;;;;;;25.25;10.18;;;;;;;-4.18;66.86;97814.97;6235265;28;20045;-65
2023/03/30 00:23:20;;;;;;;17.80;8.48;;;;;;;-4.13;66.83;97808.19;6230494;28;20052;-65
2023/03/30 00:26:25;;;;;;;18.20;9.02;;;;;;;-4.17;67.00;97806.41;6230869;28;20052;-65
2023/03/30 00:29:27;;;;;;;16.15;8.27;;;;;;;-4.21;66.97;97814.97;6230018;28;20041;-65
2023/03/30 00:32:35;;;;;;;17.65;9.43;;;;;;;-4.24;67.05;97814.94;6228444;28;20041;-65
2023/03/30 00:35:38;;;;;;;19.30;9.25;;;;;;;-4.34;67.27;97821.69;6229858;28;20038;-65
2023/03/30 00:38:40;;;;;;;25.05;9.60;;;;;;;-4.38;67.58;97845.63;6229330;28;20033;-64
2023/03/30 00:41:44;;;;;;;16.30;7.97;;;;;;;-4.41;67.62;97839.63;6225058;28;20038;-65
2023/03/30 00:45:14;;;;;;;13.52;7.68;;;;;;;-4.32;67.65;97834.56;6229995;28;20068;-64
2023/03/30 00:48:33;;;;;;;12.65;7.90;;;;;;;-4.36;67.74;97812.25;6229269;28;20049;-64
2023/03/30 00:51:39;;;;;;;9.52;4.85;;;;;;;-4.28;66.77;97810.59;6228434;28;20049;-65
2023/03/30 00:54:50;;;;;;;20.80;9.00;;;;;;;-4.26;67.16;97818.34;6229411;28;20472;-65
2023/03/30 00:57:53;;;;;;;19.38;7.95;;;;;;;-4.31;66.84;97820.84;6229700;28;20228;-65
2023/03/30 01:00:57;;;;;;;16.42;7.93;;;;;;;-4.25;66.64;97835.47;6229468;28;20133;-66
2023/03/30 01:04:04;;;;;;;18.75;7.00;;;;;;;-4.40;66.87;97843.91;6229120;28;20054;-67
2023/03/30 01:07:11;;;;;;;19.63;8.07;;;;;;;-4.41;66.43;97849.91;6228540;28;20041;-68
2023/03/30 01:10:21;;;;;;;21.15;7.97;;;;;;;-4.55;66.44;97848.03;6227842;28;20566;-67
2023/03/30 01:13:29;;;;;;;14.32;8.65;;;;;;;-4.58;66.68;97853.16;6231184;28;20045;-67
2023/03/30 01:16:37;;;;;;;15.50;7.93;;;;;;;-4.52;66.79;97853.22;6227496;28;20375;-67
2023/03/30 01:20:08;;;;;;;14.38;7.00;;;;;;;-4.46;65.80;97866.97;6230848;28;20499;-68
2023/03/30 01:23:32;;;;;;;10.85;7.93;;;;;;;-4.51;65.85;97870.31;6228434;28;20411;-66
2023/03/30 01:26:45;;;;;;;16.23;7.88;;;;;;;-4.53;65.79;97860.88;6227586;28;20037;-67
2023/03/30 01:30:31;;;;;;;12.68;7.30;;;;;;;-4.46;65.47;97866.97;6234399;28;20046;-67
2023/03/30 01:33:50;;;;;;;24.88;9.77;;;;;;;-4.57;65.63;97864.28;6234589;28;20267;-66
2023/03/30 01:37:00;;;;;;;14.93;8.43;;;;;;;-4.64;65.76;97868.50;6240408;28;20147;-67
2023/03/30 01:40:04;;;;;;;14.57;8.35;;;;;;;-4.58;65.51;97873.69;6232910;28;20399;-67
2023/03/30 01:43:18;;;;;;;16.38;7.85;;;;;;;-4.59;65.38;97873.66;6237438;28;20184;-67
2023/03/30 01:46:30;;;;;;;9.20;6.30;;;;;;;-4.61;65.18;97871.09;6236484;28;20046;-67
2023/03/30 01:49:40;;;;;;;11.75;6.95;;;;;;;-4.63;65.25;97883.06;6240643;28;20042;-67
2023/03/30 01:52:54;;;;;;;14.18;7.43;;;;;;;-4.60;65.10;97869.38;6234932;28;20048;-67
2023/03/30 01:56:11;;;;;;;15.73;7.32;;;;;;;-4.69;65.00;97872.72;6237304;28;20093;-68
2023/03/30 01:59:19;;;;;;;13.32;7.35;;;;;;;-4.72;65.47;97864.97;6234322;28;20054;-66
2023/03/30 02:02:24;;;;;;;11.73;6.78;;;;;;;-4.70;65.27;97883.81;6233969;28;20396;-67
2023/03/30 02:05:27;;;;;;;14.25;7.30;;;;;;;-4.67;64.93;97883.88;6233147;28;20049;-67
2023/03/30 02:08:34;;;;;;;15.50;7.50;;;;;;;-4.67;64.92;97891.56;6233153;28;20392;-68
2023/03/30 02:11:42;;;;;;;15.60;8.00;;;;;;;-4.60;64.92;97890.78;6231783;28;20411;-67
2023/03/30 02:14:46;;;;;;;7.70;5.35;;;;;;;-4.66;64.86;97890.72;6232770;28;20037;-67
2023/03/30 02:17:47;;;;;;;;;;;;;;;-4.62;64.22;97897.59;6234478;28;20435;-67
2023/03/30 02:20:49;;;;;;;10.02;6.45;;;;;;;-4.68;64.39;97891.53;6239406;28;20356;-67
2023/03/30 02:23:54;;;;;;;9.15;5.70;;;;;;;-4.67;64.51;97896.72;6232513;28;20049;-67
2023/03/30 02:27:02;;;;;;;10.30;5.30;;;;;;;-4.56;64.48;97904.50;6237034;28;20056;-68
2023/03/30 02:30:08;;;;;;;11.85;5.43;;;;;;;-4.49;64.28;97900.31;6242595;28;20037;-67
2023/03/30 02:33:47;;;;;;;12.80;5.78;;;;;;;-4.43;64.19;97902.97;6235176;28;20042;-66
2023/03/30 02:37:10;;;;;;;9.30;5.00;;;;;;;-4.41;63.77;97891.00;6206561;28;20199;-67
2023/03/30 02:40:28;;;;;;;10.95;5.65;;;;;;;-4.26;63.71;97898.84;6236496;28;20124;-67
2023/03/30 02:43:49;;;;;;;10.25;4.35;;;;;;;-4.19;63.34;97897.19;6232555;28;20049;-66
2023/03/30 02:47:05;;;;;;;17.23;8.10;;;;;;;-4.18;63.18;97893.78;6232546;28;20765;-67
2023/03/30 02:50:23;;;;;;;17.20;4.90;;;;;;;-4.13;62.65;97902.41;6231587;28;20046;-67
2023/03/30 02:53:35;;;;;;;15.45;5.15;;;;;;;-4.06;62.38;97914.47;6231392;28;20068;-67
2023/03/30 02:57:05;;;;;;;9.07;4.72;;;;;;;-4.07;62.35;97918.75;6232906;28;20049;-68
2023/03/30 03:00:17;;;;;;;11.05;4.50;;;;;;;-3.97;61.66;97916.25;6228812;28;20045;-67
2023/03/30 03:03:26;;;;;;;6.85;4.70;;;;;;;-3.94;61.86;97921.44;6244672;28;20045;-68
2023/03/30 03:06:31;;;;;;;15.80;6.28;;;;;;;-3.89;61.41;97924.91;6238582;28;20132;-68
2023/03/30 03:09:35;;;;;;;10.05;4.90;;;;;;;-3.91;61.56;97918.88;6230768;28;20045;-68
2023/03/30 03:12:40;;;;;;;14.32;5.28;;;;;;;-3.89;61.49;97923.19;6234087;28;20415;-68
2023/03/30 03:15:45;;;;;;;13.23;5.35;;;;;;;-3.79;61.23;97941.25;6232502;28;20132;-67
2023/03/30 03:18:48;;;;;;;9.52;5.05;;;;;;;-3.71;61.08;97945.66;6230570;28;20544;-67
2023/03/30 03:21:52;;;;;;;12.27;5.35;;;;;;;-3.63;60.63;97946.56;6229658;28;20045;-67
2023/03/30 03:24:56;;;;;;;12.52;4.50;;;;;;;-3.60;60.45;97945.72;6236783;28;20046;-66
2023/03/30 03:28:00;;;;;;;8.40;3.90;;;;;;;-3.57;60.25;97948.31;6233088;28;20045;-67
2023/03/30 03:31:08;;;;;;;14.77;4.40;;;;;;;-3.53;60.51;97962.94;6238911;28;20041;-67
2023/03/30 03:34:09;;;;;;;7.82;3.17;;;;;;;-3.45;59.90;97966.44;6236511;28;20053;-67
2023/03/30 03:37:13;;;;;;;8.07;3.65;;;;;;;-3.38;59.61;97972.50;6241777;28;20457;-67
2023/03/30 03:40:20;;;;;;;12.48;4.00;;;;;;;-3.34;59.58;97973.38;6240199;28;20038;-67
2023/03/30 03:43:25;;;;;;;15.68;6.30;;;;;;;-3.30;58.61;97960.56;6233994;28;20042;-67
2023/03/30 03:46:29;;;;;;;7.75;2.63;;;;;;;-3.25;58.89;97958.88;6229253;28;20056;-66
2023/03/30 03:49:33;;;;;;;10.68;2.55;;;;;;;-3.20;58.44;97972.66;6234387;28;20539;-68
2023/03/30 03:52:39;;;;;;;5.20;2.83;;;;;;;-3.19;58.36;97971.78;6233329;28;20049;-69
2023/03/30 03:55:40;;;;;;;13.55;2.70;;;;;;;-3.11;58.14;97981.25;6235857;28;20045;-66
2023/03/30 03:58:46;;;;;;;10.60;2.67;;;;;;;-3.04;58.30;97980.47;6236216;28;20045;-66
2023/03/30 04:01:48;;;;;;;3.45;1.92;;;;;;;-3.03;58.43;97971.88;6232606;28;20048;-67
2023/03/30 04:04:56;;;;;;;7.22;1.88;;;;;;;-2.94;58.33;97974.53;6232369;28;20048;-66
2023/03/30 04:08:09;;;;;;;7.07;2.70;;;;;;;-2.90;57.63;97971.09;6228345;28;20038;-66
2023/03/30 04:11:13;;;;;;;14.40;1.95;;;;;;;-2.79;57.70;97979.75;6232266;28;20073;-66
2023/03/30 04:14:17;;;;;;;12.93;2.47;;;;;;;-2.73;57.71;97977.22;6230759;28;20068;-67
2023/03/30 04:17:24;;;;;;;5.85;1.98;;;;;;;-2.74;57.22;97984.94;6230885;28;20045;-67
2023/03/30 04:20:30;;;;;;;14.60;4.43;;;;;;;-2.62;57.34;97971.25;6231115;28;20037;-67
2023/03/30 04:23:33;;;;;;;6.53;2.08;;;;;;;-2.56;56.75;97981.59;6230313;28;20427;-68
2023/03/30 04:26:37;;;;;;;10.48;3.53;;;;;;;-2.48;56.65;97992.81;6234612;28;20050;-67
2023/03/30 04:29:43;;;;;;;6.07;1.90;;;;;;;-2.41;56.14;97986.81;6231161;28;20426;-68
2023/03/30 04:32:53;;;;;;;7.25;2.20;;;;;;;-2.35;56.08;97975.66;6228691;28;20546;-67
2023/03/30 04:35:57;;;;;;;9.10;1.70;;;;;;;-2.31;56.25;97988.56;6231245;28;20399;-67
2023/03/30 04:39:05;;;;;;;4.32;1.42;;;;;;;-2.21;56.04;97988.59;6229101;28;20076;-67
2023/03/30 04:42:07;;;;;;;10.48;2.35;;;;;;;-2.17;55.92;97996.38;6226737;28;20045;-67
2023/03/30 04:45:09;;;;;;;6.18;2.17;;;;;;;-2.04;55.57;97994.66;6224635;28;20052;-67
2023/03/30 04:48:13;;;;;;;8.00;2.17;;;;;;;-1.99;55.33;97985.25;6230261;28;20052;-67
2023/03/30 04:51:19;;;;;;;6.55;1.70;;;;;;;-1.88;54.60;97983.53;6228888;28;20486;-67
2023/03/30 04:54:27;;;;;;;6.85;1.73;;;;;;;-1.72;54.50;97996.50;6230290;28;20049;-67
2023/03/30 04:57:33;;;;;;;21.15;3.03;;;;;;;-1.66;54.41;97993.91;6230508;28;20041;-69
2023/03/30 05:00:40;;;;;;;9.98;1.88;;;;;;;-1.49;53.36;98006.84;6230321;28;20037;-68
2023/03/30 05:03:41;;;;;;;10.35;3.78;;;;;;;-1.49;53.81;97999.97;6230255;28;20056;-67
2023/03/30 05:06:48;;;;;;;5.10;2.00;;;;;;;-1.38;52.85;97997.41;6227766;28;20427;-67
2023/03/30 05:09:51;;;;;;;10.65;2.88;;;;;;;-1.27;53.42;98007.72;6229987;28;20034;-67
2023/03/30 05:12:55;;;;;;;12.02;2.85;;;;;;;-1.15;52.73;98010.31;6228312;28;20502;-67
2023/03/30 05:16:01;;;;;;;5.90;2.15;;;;;;;-1.14;52.46;97988.75;6229519;28;20057;-67
2023/03/30 05:19:05;;;;;;;9.13;2.60;;;;;;;-0.90;52.43;98003.41;6228973;28;20050;-68
2023/03/30 05:22:06;;;;;;;3.72;2.10;;;;;;;-0.82;52.23;98005.94;6229402;28;20033;-67
2023/03/30 05:25:13;;;;;;;11.18;3.95;;;;;;;-0.75;52.37;98008.53;6232105;28;20502;-67
2023/03/30 05:28:19;;;;;;;15.63;2.63;;;;;;;-0.64;51.33;98005.94;6231012;28;20037;-68
2023/03/30 05:31:23;;;;;;;3.55;2.85;;;;;;;0.42;50.21;98016.66;6234412;28;20418;-68
2023/03/30 05:34:24;;;;;;;13.88;3.03;;;;;;;5.66;42.43;98008.84;6232332;28;20533;-68
2023/03/30 05:37:26;;;;;;;5.05;2.28;;;;;;;11.08;34.77;98023.53;6230379;28;20041;-69
2023/03/30 05:40:27;;;;;;;4.22;2.33;;;;;;;15.33;28.67;98019.63;6229192;28;20462;-68
2023/03/30 05:43:32;;;;;;;;;;;;;;;19.56;26.32;98017.50;6230652;28;20042;-68
2023/03/30 05:46:36;;;;;;;10.68;3.63;;;;;;;21.97;22.70;98021.25;6231328;28;19921;-67
2023/03/30 05:49:43;;;;;;;7.05;2.92;;;;;;;23.57;20.53;98022.00;6236492;28;20041;-68
2023/03/30 05:52:45;;;;;;;7.40;2.13;;;;;;;25.22;18.33;98019.41;6230154;28;20046;-70
2023/03/30 05:55:51;;;;;;;8.70;1.88;;;;;;;26.47;16.59;98017.44;6237383;28;20505;-68
2023/03/30 05:58:57;;;;;;;11.90;1.95;;;;;;;27.82;15.30;98004.69;6231190;28;20046;-68
2023/03/30 06:02:05;;;;;;;6.88;1.00;;;;;;;28.82;13.47;98017.97;6238534;28;20037;-69
2023/03/30 06:05:08;;;;;;;6.75;0.95;;;;;;;29.13;13.32;98017.78;6230728;28;20187;-69
2023/03/30 06:08:12;;;;;;;6.70;1.08;;;;;;;29.36;12.70;98014.91;6230750;28;20041;-67
2023/03/30 06:11:15;;;;;;;6.45;0.90;;;;;;;28.75;12.78;98022.44;6228540;28;20041;-67
2023/03/30 06:14:19;;;;;;;2.80;0.80;;;;;;;29.36;12.25;98014.91;6229555;28;20073;-68
2023/03/30 06:17:26;;;;;;;7.40;1.20;;;;;;;29.59;11.29;98024.75;6229402;28;20041;-68
2023/03/30 06:20:30;;;;;;;3.17;0.80;;;;;;;29.74;11.55;98028.28;6229237;28;20041;-68
2023/03/30 06:23:39;;;;;;;7.07;1.35;;;;;;;30.69;10.83;98031.56;6228112;28;20045;-69
2023/03/30 06:26:47;;;;;;;3.38;0.95;;;;;;;31.25;9.90;98021.47;6231500;28;20041;-67
2023/03/30 06:29:48;;;;;;;10.30;0.93;;;;;;;30.84;9.68;98013.31;6232802;28;20127;-66
2023/03/30 06:32:55;;;;;;;10.88;1.42;;;;;;;30.40;9.66;98012.59;6231022;28;20056;-67
2023/03/30 06:36:01;;;;;;;8.02;0.90;;;;;;;31.20;9.70;98023.13;6228893;28;20442;-68
2023/03/30 06:39:05;;;;;;;8.20;1.17;;;;;;;31.83;9.55;98014.72;6231361;28;20049;-66
2023/03/30 06:42:07;;;;;;;1.95;0.77;;;;;;;32.54;8.83;98030.50;6232242;28;20406;-65
2023/03/30 06:45:15;;;;;;;6.38;0.82;;;;;;;32.75;8.69;98021.22;6234373;28;20037;-65
2023/03/30 06:48:22;;;;;;;9.45;0.98;;;;;;;32.75;8.46;98016.59;6232227;28;20056;-65
2023/03/30 06:51:29;;;;;;;8.05;1.08;;;;;;;32.90;8.29;98024.56;6232957;28;20049;-69
2023/03/30 06:54:36;;;;;;;6.13;0.93;;;;;;;32.76;8.13;98022.91;6235276;28;20037;-68
2023/03/30 06:57:40;;;;;;;3.65;0.77;;;;;;;32.68;8.37;98014.97;6241332;28;20040;-65
2023/03/30 07:00:45;;;;;;;4.05;0.70;;;;;;;32.97;8.58;98019.06;6237178;28;20050;-70
2023/03/30 07:03:50;;;;;;;8.52;1.02;;;;;;;33.51;7.91;98020.53;6233810;28;20136;-66
2023/03/30 07:06:56;;;;;;;8.82;1.15;;;;;;;33.56;7.92;98039.03;6239943;28;20050;-68
2023/03/30 07:10:09;;;;;;;5.95;1.45;;;;;;;34.41;7.70;98034.03;6237792;28;20514;-69
2023/03/30 07:13:12;;;;;;;5.15;1.25;;;;;;;34.83;7.60;98028.81;6236740;28;20058;-69
2023/03/30 07:16:16;;;;;;;2.35;0.82;;;;;;;34.47;7.23;98032.28;6236674;28;20041;-69
2023/03/30 07:19:23;;;;;;;2.65;0.70;;;;;;;34.91;7.56;98028.50;6236354;28;20045;-66
2023/03/30 07:22:29;;;;;;;5.97;1.35;;;;;;;34.95;6.95;98037.09;6235762;28;20037;-67
2023/03/30 07:25:38;;;;;;;4.90;0.75;;;;;;;35.53;6.88;98039.34;6238025;28;20037;-67
2023/03/30 07:28:44;;;;;;;9.30;1.55;;;;;;;36.51;6.46;98046.31;6237491;28;20034;-68
2023/03/30 07:31:46;;;;;;;9.80;1.45;;;;;;;35.87;6.90;98039.72;6236657;28;20041;-68
2023/03/30 07:34:51;;;;;;;4.82;1.23;;;;;;;34.47;7.17;98024.09;6237708;28;20512;-67
2023/03/30 07:37:58;;;;;;;5.68;1.10;;;;;;;33.59;7.80;98022.22;6235415;28;20050;-68
2023/03/30 07:41:07;;;;;;;6.22;0.80;;;;;;;34.08;7.49;98016.00;6233989;28;20136;-67
2023/03/30 07:44:09;;;;;;;12.18;2.03;;;;;;;34.41;7.59;98021.19;6227423;28;20454;-66
2023/03/30 07:47:15;;;;;;;8.48;1.40;;;;;;;34.43;7.59;98032.75;6238388;28;20037;-66
2023/03/30 07:50:24;;;;;;;6.30;1.23;;;;;;;34.21;7.34;98034.19;6238385;28;20045;-67
2023/03/30 07:53:27;;;;;;;3.30;0.43;;;;;;;34.08;7.08;98026.09;6238023;28;20053;-65
2023/03/30 07:56:33;;;;;;;7.00;0.60;;;;;;;33.56;7.37;98023.47;6237413;28;20033;-65
2023/03/30 07:59:42;;;;;;;4.55;0.90;;;;;;;33.88;7.11;98005.19;6238294;28;20037;-66
2023/03/30 08:02:49;;;;;;;10.48;2.55;;;;;;;34.31;7.16;98006.34;6234263;28;20045;-66
2023/03/30 08:05:59;;;;;;;11.25;2.22;;;;;;;34.40;7.05;98011.34;6231720;28;20077;-66
2023/03/30 08:09:05;;;;;;;23.38;3.22;;;;;;;34.25;6.98;98020.91;6239317;28;20099;-66
2023/03/30 08:12:09;;;;;;;10.65;1.50;;;;;;;34.05;7.23;98021.09;6239621;28;20034;-66
2023/03/30 08:15:16;;;;;;;16.42;1.83;;;;;;;33.89;7.24;98017.81;6236635;28;20037;-65
2023/03/30 08:18:20;;;;;;;4.55;0.90;;;;;;;33.90;7.13;98026.84;6236632;28;20038;-66
2023/03/30 08:21:25;;;;;;;4.30;0.60;;;;;;;33.77;7.09;98030.47;6238241;28;20053;-66
2023/03/30 08:24:26;;;;;;;8.25;1.60;;;;;;;33.87;7.21;98025.38;6237863;28;20045;-66
2023/03/30 08:27:28;;;;;;;8.93;1.50;;;;;;;33.77;7.38;98019.56;6234874;28;20041;-67
2023/03/30 08:30:32;;;;;;;7.15;1.20;;;;;;;33.66;7.33;98023.00;6235077;28;20038;-66
2023/03/30 08:33:40;;;;;;;5.63;1.13;;;;;;;34.25;7.21;98013.56;6237697;28;20475;-66
2023/03/30 08:36:44;;;;;;;7.43;1.30;;;;;;;34.92;6.91;98026.59;6237410;28;20038;-66
2023/03/30 08:39:49;;;;;;;6.13;0.80;;;;;;;34.73;6.87;98020.28;6234418;28;20041;-66
2023/03/30 08:43:21;;;;;;;7.03;1.20;;;;;;;34.98;6.91;98003.81;6237239;28;20102;-67
2023/03/30 08:46:26;;;;;;;5.13;0.73;;;;;;;34.82;6.71;98006.09;6238548;28;20566;-66
2023/03/30 08:49:40;;;;;;;6.88;1.25;;;;;;;33.80;7.25;98001.91;6240590;28;20267;-67
2023/03/30 08:52:44;;;;;;;5.90;1.00;;;;;;;33.56;7.26;98006.28;6239326;28;20416;-69
2023/03/30 08:55:50;;;;;;;3.55;0.70;;;;;;;32.64;7.34;98009.94;6237681;28;20224;-70
2023/03/30 08:59:21;;;;;;;7.07;1.20;;;;;;;32.98;7.44;97999.78;6235778;28;20502;-70
2023/03/30 09:02:31;;;;;;;4.72;1.05;;;;;;;32.49;7.88;98012.03;6231418;28;20037;-69
2023/03/30 09:05:41;;;;;;;2.75;0.93;;;;;;;31.95;8.03;98008.47;6234336;28;20089;-68
2023/03/30 09:08:49;;;;;;;6.32;0.75;;;;;;;32.63;7.88;98013.69;6227590;28;20526;-71
2023/03/30 09:12:16;;;;;;;2.75;0.60;;;;;;;33.11;7.83;98009.81;6239802;28;20057;-71
2023/03/30 09:15:47;;;;;;;4.55;0.80;;;;;;;32.92;7.74;98006.06;6228673;28;20038;-70
2023/03/30 09:18:55;;;;;;;6.35;2.28;;;;;;;32.55;7.87;98016.63;6233887;28;20046;-70
2023/03/30 09:22:04;;;;;;;7.32;1.65;;;;;;;33.05;7.52;98000.59;6233945;28;20042;-71
2023/03/30 09:25:32;;;;;;;6.45;1.67;;;;;;;32.81;7.62;97998.56;6233653;28;20064;-70
2023/03/30 09:28:55;;;;;;;10.07;1.90;;;;;;;31.45;8.14;97988.91;6231953;28;20056;-69
2023/03/30 09:32:39;;;;;;;9.87;1.77;;;;;;;31.11;8.49;97997.94;6230549;28;20528;-71
2023/03/30 09:35:51;;;;;;;4.43;1.03;;;;;;;30.97;8.38;97999.81;6238358;28;20447;-71
2023/03/30 09:38:55;;;;;;;13.02;1.50;;;;;;;30.77;8.36;97996.97;6234506;28;20546;-69
2023/03/30 09:42:20;;;;;;;6.55;1.23;;;;;;;30.63;8.65;98006.03;6235286;28;20046;-70
2023/03/30 09:45:30;;;;;;;7.53;1.10;;;;;;;29.73;9.08;97997.59;6234076;28;20435;-70
2023/03/30 09:48:42;;;;;;;5.07;0.63;;;;;;;29.37;9.34;97989.47;6231920;28;20044;-69
2023/03/30 09:51:59;;;;;;;6.40;0.73;;;;;;;29.99;9.08;98004.31;6227489;28;20143;-69
2023/03/30 09:55:19;;;;;;;3.10;0.95;;;;;;;29.70;9.45;98000.72;6235679;28;20033;-70
2023/03/30 09:58:33;;;;;;;8.55;1.05;;;;;;;29.01;9.55;97981.31;6236069;28;20041;-70
2023/03/30 10:01:37;;;;;;;4.10;0.73;;;;;;;28.87;9.87;97993.84;6233068;28;20459;-69
2023/03/30 10:04:53;;;;;;;11.23;1.52;;;;;;;29.23;9.79;97988.47;6240304;28;20049;-69
2023/03/30 10:08:03;;;;;;;12.25;0.93;;;;;;;29.21;9.64;97989.69;6232553;28;20048;-71
2023/03/30 10:11:10;;;;;;;25.92;3.10;;;;;;;29.07;9.71;97981.44;6234150;28;20041;-71
2023/03/30 10:14:26;;;;;;;7.03;1.48;;;;;;;28.53;10.05;97989.84;6237115;28;20041;-70
2023/03/30 10:17:31;;;;;;;12.35;1.52;;;;;;;28.19;10.35;97987.63;6233140;28;20169;-70
2023/03/30 10:20:38;;;;;;;1.98;0.70;;;;;;;27.80;10.69;97976.97;6233660;28;20642;-71
2023/03/30 10:23:43;;;;;;;7.57;1.35;;;;;;;27.97;10.72;97975.84;6240445;28;20507;-71
2023/03/30 10:26:49;;;;;;;5.63;0.85;;;;;;;28.07;10.26;97976.41;6239396;28;20533;-70
2023/03/30 10:29:51;;;;;;;6.32;1.30;;;;;;;27.65;10.69;97966.09;6239692;28;20037;-70
2023/03/30 10:32:58;;;;;;;2.20;0.57;;;;;;;26.88;11.11;97969.59;6234388;28;22071;-70
2023/03/30 10:36:02;;;;;;;9.02;1.08;;;;;;;26.52;11.52;97963.81;6232912;28;20042;-71
2023/03/30 10:39:30;;;;;;;2.83;0.80;;;;;;;26.32;11.59;97953.38;6232649;28;22003;-70
2023/03/30 10:42:39;;;;;;;5.60;0.80;;;;;;;26.60;11.40;97961.09;6240075;28;20044;-68
2023/03/30 10:45:57;;;;;;;5.68;0.80;;;;;;;26.83;11.35;97956.59;6239290;28;20046;-70
2023/03/30 10:49:20;;;;;;;3.67;1.10;;;;;;;26.18;11.43;97967.59;6238046;28;20045;-72
2023/03/30 10:52:40;;;;;;;3.50;0.70;;;;;;;25.69;11.57;97941.50;6242103;28;20052;-72
2023/03/30 10:55:46;;;;;;;7.28;1.30;;;;;;;25.45;12.31;97942.34;6242042;28;20427;-71
2023/03/30 10:59:23;;;;;;;6.13;1.10;;;;;;;24.89;12.43;97954.66;6232981;28;20053;-70
2023/03/30 11:03:05;;;;;;;6.00;0.73;;;;;;;24.69;12.47;97958.63;6242940;28;20310;-72
2023/03/30 11:06:12;;;;;;;4.07;1.13;;;;;;;24.59;13.01;97950.66;6234812;28;20491;-72
2023/03/30 11:09:26;;;;;;;6.32;1.02;;;;;;;24.33;12.87;97942.63;6237838;28;20469;-71
2023/03/30 11:12:42;;;;;;;6.65;1.33;;;;;;;24.00;13.50;97937.03;6230944;28;20052;-72
2023/03/30 11:15:58;;;;;;;4.93;1.08;;;;;;;23.70;13.45;97944.56;6231803;28;20057;-72
2023/03/30 11:19:09;;;;;;;3.17;0.80;;;;;;;23.14;13.92;97945.72;6235582;28;20050;-73
2023/03/30 11:22:23;;;;;;;3.70;0.98;;;;;;;22.40;14.62;97915.34;6233706;28;20089;-73
2023/03/30 11:25:48;;;;;;;7.32;1.00;;;;;;;22.07;14.77;97942.66;6238258;28;20060;-72
2023/03/30 11:28:50;;;;;;;18.95;1.70;;;;;;;21.23;15.41;97935.25;6238834;28;20046;-73
2023/03/30 11:32:03;;;;;;;3.28;0.90;;;;;;;20.82;15.84;97942.53;6236238;28;20037;-72
2023/03/30 11:35:33;;;;;;;5.20;1.30;;;;;;;20.58;16.10;97941.09;6239918;28;20049;-72
2023/03/30 11:38:47;;;;;;;4.03;1.33;;;;;;;19.60;16.69;97933.50;6232621;28;20491;-71
2023/03/30 11:42:09;;;;;;;3.95;1.27;;;;;;;19.42;16.82;97925.22;6234940;28;20049;-72
2023/03/30 11:45:31;;;;;;;4.13;1.30;;;;;;;19.28;17.18;97918.38;6239968;28;20050;-72
2023/03/30 11:48:59;;;;;;;2.25;0.77;;;;;;;19.41;17.21;97933.34;6237335;28;20046;-72
2023/03/30 11:52:29;;;;;;;5.05;1.58;;;;;;;19.47;17.00;97928.34;6234532;28;20495;-72
2023/03/30 11:56:11;;;;;;;6.95;1.20;;;;;;;18.98;17.31;97926.25;6233288;28;20034;-74
2023/03/30 11:59:23;;;;;;;13.77;1.80;;;;;;;18.21;18.02;97916.44;6229663;28;20045;-72
2023/03/30 12:02:43;;;;;;;4.43;0.98;;;;;;;17.11;18.95;97927.56;6233288;28;20052;-74
2023/03/30 12:05:59;;;;;;;6.28;1.75;;;;;;;16.05;20.03;97927.19;6233903;28;20056;-76
2023/03/30 12:09:15;;;;;;;8.98;1.50;;;;;;;16.04;20.55;97929.00;6240194;28;20038;-74
2023/03/30 12:12:23;;;;;;;;;;;;;;;16.43;19.53;97935.13;6236333;28;20060;-75
2023/03/30 12:15:47;;;;;;;11.02;2.22;;;;;;;17.05;19.35;97932.38;6241125;28;20469;-75
2023/03/30 12:19:10;;;;;;;7.13;1.05;;;;;;;16.67;19.66;97924.50;6236754;28;20045;-75
2023/03/30 12:22:25;;;;;;;5.13;1.25;;;;;;;15.31;21.21;97918.13;6234179;28;20046;-73
2023/03/30 12:25:30;;;;;;;10.52;1.55;;;;;;;14.42;22.22;97913.34;6232188;28;20049;-76
2023/03/30 12:28:57;;;;;;;8.85;1.27;;;;;;;13.99;22.62;97910.75;6231345;28;20134;-77
2023/03/30 12:32:01;;;;;;;9.55;1.60;;;;;;;13.44;23.48;97914.94;6235488;28;20084;-78
2023/03/30 12:35:50;;;;;;;8.95;1.38;;;;;;;13.22;23.70;97918.00;6234684;28;20089;-79
2023/03/30 12:39:01;;;;;;;5.80;1.08;;;;;;;12.85;24.49;97920.13;6232858;28;20051;-79
2023/03/30 12:42:25;;;;;;;7.40;1.38;;;;;;;12.66;24.56;97911.56;6235093;28;20131;-72
2023/03/30 12:45:36;;;;;;;9.77;1.80;;;;;;;12.51;24.76;97900.03;6239711;28;20045;-76
2023/03/30 12:49:33;;;;;;;10.27;1.98;;;;;;;12.46;24.75;97905.59;6231761;28;20541;-79
2023/03/30 12:52:48;;;;;;;8.35;1.50;;;;;;;12.01;25.65;97915.09;6231070;28;20052;-75
2023/03/30 12:56:04;;;;;;;5.82;1.73;;;;;;;11.71;25.96;97904.38;6237486;28;20221;-80
2023/03/30 12:59:44;;;;;;;13.07;2.22;;;;;;;11.55;26.34;97912.25;6258238;28;20045;-79
2023/03/30 13:03:11;;;;;;;8.75;1.85;;;;;;;11.29;26.58;97912.72;6237319;28;20462;-77
2023/03/30 13:06:22;;;;;;;11.93;1.80;;;;;;;10.90;27.37;97901.50;6239534;28;20119;-80
2023/03/30 13:09:27;;;;;;;4.85;1.60;;;;;;;10.45;27.86;97917.75;6238808;28;20541;-78
2023/03/30 13:12:39;;;;;;;5.63;1.50;;;;;;;10.03;28.56;97910.91;6232815;28;20140;-78
2023/03/30 13:15:50;;;;;;;8.80;1.73;;;;;;;9.72;29.01;97912.31;6241692;28;20426;-72
2023/03/30 13:19:08;;;;;;;8.23;2.55;;;;;;;9.52;29.59;97909.72;6234574;28;20072;-75
2023/03/30 13:22:14;;;;;;;6.60;2.85;;;;;;;9.35;29.58;97919.19;6230435;28;20124;-77
2023/03/30 13:25:25;;;;;;;10.43;1.90;;;;;;;9.14;29.90;97920.09;6236527;28;20045;-73
2023/03/30 13:28:47;;;;;;;9.35;2.65;;;;;;;8.95;30.38;97922.66;6232330;28;20037;-77
2023/03/30 13:32:06;;;;;;;8.82;2.15;;;;;;;8.63;30.63;97923.94;6234717;28;20045;-76
2023/03/30 13:35:47;;;;;;;4.75;1.60;;;;;;;8.18;31.49;97943.16;6236191;28;20045;-77
2023/03/30 13:39:16;;;;;;;7.53;1.73;;;;;;;7.81;31.83;97939.28;6241187;28;20050;-80
2023/03/30 13:42:34;;;;;;;14.80;1.95;;;;;;;7.36;32.84;97942.63;6248766;28;20041;-76
2023/03/30 13:46:04;;;;;;;8.93;3.10;;;;;;;6.86;33.78;97963.53;6245513;28;20144;-81
2023/03/30 13:49:11;;;;;;;5.40;2.45;;;;;;;6.24;34.82;97952.38;6241340;28;20045;-79
2023/03/30 13:52:24;;;;;;;7.80;2.60;;;;;;;5.64;35.86;97963.69;6244586;28;20108;-78
2023/03/30 13:55:37;;;;;;;15.88;2.70;;;;;;;5.18;36.69;97967.53;6242270;28;20136;-74
2023/03/30 13:58:56;;;;;;;9.00;2.20;;;;;;;4.71;37.71;97961.72;6241688;28;20045;-73
2023/03/30 14:02:05;;;;;;;4.53;1.80;;;;;;;4.40;38.55;97959.84;6242306;28;20045;-77
2023/03/30 14:05:19;;;;;;;7.18;2.90;;;;;;;4.19;38.69;97969.00;6239624;28;20651;-73
2023/03/30 14:08:20;;;;;;;;;;;;;;;4.03;37.81;97976.28;6240014;28;20487;-75
2023/03/30 14:11:47;;;;;;;12.53;2.40;;;;;;;3.74;39.61;97974.28;6235281;28;19921;-75
2023/03/30 14:14:52;;;;;;;10.95;2.22;;;;;;;3.36;39.99;97962.00;6234618;28;20045;-76
2023/03/30 14:18:04;;;;;;;7.47;1.90;;;;;;;3.22;41.00;97970.03;6234423;28;20037;-77
2023/03/30 14:21:13;;;;;;;10.13;2.22;;;;;;;3.01;41.71;97976.50;6229285;28;20077;-75
2023/03/30 14:24:27;;;;;;;13.43;2.90;;;;;;;2.78;42.27;97978.63;6236649;28;20496;-76
2023/03/30 14:27:37;;;;;;;12.05;2.67;;;;;;;2.59;42.70;97973.69;6229436;28;20045;-75
2023/03/30 14:30:52;;;;;;;5.00;1.92;;;;;;;2.45;43.63;97992.09;6233151;28;20050;-74
2023/03/30 14:33:56;;;;;;;5.75;1.85;;;;;;;2.22;43.53;97995.00;6234207;28;20037;-75
2023/03/30 14:37:05;;;;;;;11.50;2.95;;;;;;;2.06;44.39;97993.50;6232213;28;20638;-75
2023/03/30 14:40:16;;;;;;;12.27;2.90;;;;;;;1.86;44.70;97974.72;6232511;28;20499;-75
2023/03/30 14:43:26;;;;;;;8.30;2.70;;;;;;;1.68;44.89;97991.38;6231287;28;20041;-76
2023/03/30 14:46:38;;;;;;;11.60;4.13;;;;;;;1.66;45.92;97999.19;6231260;28;20496;-77
2023/03/30 14:49:46;;;;;;;22.10;7.15;;;;;;;1.41;45.80;97992.53;6232336;28;20052;-73
2023/03/30 14:52:54;;;;;;;7.68;2.33;;;;;;;1.32;46.05;97999.53;6232342;28;20074;-71
2023/03/30 14:55:59;;;;;;;19.38;3.22;;;;;;;1.26;47.01;98007.38;6230784;28;20526;-71
2023/03/30 14:59:02;;;;;;;13.18;4.72;;;;;;;1.16;46.89;98010.06;6234700;28;20045;-71